createdAt,value
2022-08-07T00:00:40.647Z,12.08
2022-08-07T00:02:35.238Z,12.05
2022-08-07T00:02:44.368Z,12.05
2022-08-07T00:03:39.986Z,12.01
2022-08-07T00:04:41.376Z,11.98
2022-08-07T00:05:40.366Z,11.98
2022-08-07T00:06:40.940Z,11.96
2022-08-07T00:07:41.819Z,11.94
2022-08-07T00:08:44.536Z,11.96
2022-08-07T00:09:40.876Z,11.93
2022-08-07T00:10:47.641Z,11.90
2022-08-07T00:11:53.882Z,11.85
2022-08-07T00:12:57.879Z,11.87
2022-08-07T00:13:44.851Z,11.84
2022-08-07T00:14:44.230Z,11.82
2022-08-07T00:15:46.792Z,11.82
2022-08-07T00:16:42.927Z,11.79
2022-08-07T00:17:42.034Z,11.77
2022-08-07T00:18:42.165Z,11.72
2022-08-07T00:20:01.007Z,11.69
2022-08-07T00:20:43.475Z,11.66
2022-08-07T00:21:57.202Z,11.66
2022-08-07T00:22:43.661Z,11.64
2022-08-07T00:23:43.743Z,11.66
2022-08-07T00:24:42.935Z,11.67
2022-08-07T00:25:43.027Z,11.66
2022-08-07T00:26:49.127Z,11.64
2022-08-07T00:27:52.384Z,11.63
2022-08-07T00:28:46.008Z,11.60
2022-08-07T00:29:44.626Z,11.62
2022-08-07T00:30:43.723Z,11.62
2022-08-07T00:31:43.852Z,11.60
2022-08-07T00:32:45.071Z,11.57
2022-08-07T00:33:47.784Z,11.60
2022-08-07T00:34:44.203Z,11.56
2022-08-07T00:35:49.034Z,11.54
2022-08-07T00:36:45.452Z,11.53
2022-08-07T00:37:48.374Z,11.53
2022-08-07T00:38:44.679Z,11.49
2022-08-07T00:39:45.305Z,11.48
2022-08-07T00:40:45.927Z,11.45
2022-08-07T00:41:53.321Z,11.48
2022-08-07T00:42:46.238Z,11.45
2022-08-07T00:43:59.195Z,11.42
2022-08-07T00:44:46.472Z,11.42
2022-08-07T00:45:46.601Z,11.41
2022-08-07T00:46:45.805Z,11.38
2022-08-07T00:48:08.915Z,11.36
2022-08-07T00:48:49.727Z,11.41
2022-08-07T00:50:19.864Z,11.41
2022-08-07T00:50:51.311Z,11.44
2022-08-07T00:51:57.503Z,11.51
2022-08-07T00:52:47.712Z,11.51
2022-08-07T00:53:55.014Z,11.51
2022-08-07T00:54:53.770Z,11.46
2022-08-07T00:56:02.665Z,11.44
2022-08-07T00:56:49.869Z,11.42
2022-08-07T00:57:56.042Z,11.39
2022-08-07T00:58:49.687Z,11.35
2022-08-07T00:59:47.313Z,11.31
2022-08-07T01:00:53.541Z,11.30
2022-08-07T01:01:48.675Z,11.27
2022-08-07T01:02:47.855Z,11.26
2022-08-07T01:03:56.981Z,11.24
2022-08-07T01:04:49.009Z,11.24
2022-08-07T01:05:53.516Z,11.21
2022-08-07T01:06:53.841Z,11.20
2022-08-07T01:07:48.349Z,11.19
2022-08-07T01:08:53.030Z,11.16
2022-08-07T01:10:06.578Z,11.16
2022-08-07T01:10:54.400Z,11.09
2022-08-07T01:12:23.439Z,11.13
2022-08-07T01:12:53.949Z,11.11
2022-08-07T01:13:55.821Z,11.12
2022-08-07T01:14:50.320Z,11.12
2022-08-07T01:16:01.086Z,11.16
2022-08-07T01:16:50.589Z,11.19
2022-08-07T01:17:49.733Z,11.20
2022-08-07T01:18:49.879Z,11.20
2022-08-07T01:19:54.464Z,11.21
2022-08-07T01:20:57.277Z,11.19
2022-08-07T01:21:53.237Z,11.19
2022-08-07T01:23:00.407Z,11.16
2022-08-07T01:23:51.490Z,11.13
2022-08-07T01:24:50.621Z,11.09
2022-08-07T01:25:55.741Z,11.09
2022-08-07T01:26:52.692Z,11.11
2022-08-07T01:27:51.609Z,11.12
2022-08-07T01:28:51.109Z,11.08
2022-08-07T01:29:51.187Z,11.09
2022-08-07T01:30:52.098Z,11.06
2022-08-07T01:31:51.437Z,11.06
2022-08-07T01:32:51.581Z,11.02
2022-08-07T01:33:57.428Z,11.01
2022-08-07T01:34:52.877Z,10.99
2022-08-07T01:35:54.326Z,10.95
2022-08-07T01:36:52.655Z,10.94
2022-08-07T01:37:53.248Z,10.98
2022-08-07T01:38:52.388Z,11.02
2022-08-07T01:39:52.605Z,11.03
2022-08-07T01:40:52.736Z,11.06
2022-08-07T01:42:06.110Z,11.02
2022-08-07T01:42:58.685Z,11.02
2022-08-07T01:43:54.139Z,10.95
2022-08-07T01:44:53.338Z,10.95
2022-08-07T01:45:54.593Z,10.94
2022-08-07T01:46:53.498Z,10.93
2022-08-07T01:48:21.110Z,10.90
2022-08-07T01:48:54.759Z,10.88
2022-08-07T01:49:54.836Z,10.88
2022-08-07T01:50:55.596Z,10.91
2022-08-07T01:52:04.258Z,10.90
2022-08-07T01:52:55.419Z,10.93
2022-08-07T01:54:11.771Z,10.86
2022-08-07T01:54:55.726Z,10.86
2022-08-07T01:55:54.849Z,10.76
2022-08-07T01:56:55.154Z,10.73
2022-08-07T01:58:06.096Z,10.68
2022-08-07T01:58:56.223Z,10.66
2022-08-07T01:59:55.308Z,10.63
2022-08-07T02:01:09.488Z,10.62
2022-08-07T02:02:02.876Z,10.60
2022-08-07T02:03:18.835Z,10.58
2022-08-07T02:03:56.845Z,10.57
2022-08-07T02:04:57.276Z,10.57
2022-08-07T02:05:59.655Z,10.55
2022-08-07T02:06:57.206Z,10.54
2022-08-07T02:07:56.328Z,10.52
2022-08-07T02:08:56.568Z,10.52
2022-08-07T02:09:58.781Z,10.55
2022-08-07T02:10:57.900Z,10.54
2022-08-07T02:12:03.704Z,10.52
2022-08-07T02:12:58.076Z,10.47
2022-08-07T02:14:02.362Z,10.47
2022-08-07T02:14:58.427Z,10.46
2022-08-07T02:15:57.519Z,10.46
2022-08-07T02:16:57.626Z,10.46
2022-08-07T02:17:57.741Z,10.43
2022-08-07T02:18:57.887Z,10.38
2022-08-07T02:20:07.708Z,10.42
2022-08-07T02:20:59.139Z,10.42
2022-08-07T02:21:59.270Z,10.42
2022-08-07T02:22:59.751Z,10.39
2022-08-07T02:23:58.494Z,10.36
2022-08-07T02:24:58.674Z,10.36
2022-08-07T02:26:30.995Z,10.36
2022-08-07T02:27:01.367Z,10.36
2022-08-07T02:27:59.034Z,10.38
2022-08-07T02:28:59.216Z,10.35
2022-08-07T02:29:59.372Z,10.34
2022-08-07T02:30:59.524Z,10.31
2022-08-07T02:32:00.635Z,10.28
2022-08-07T02:33:00.165Z,10.24
2022-08-07T02:34:03.223Z,10.22
2022-08-07T02:35:01.139Z,10.20
2022-08-07T02:36:27.157Z,10.17
2022-08-07T02:37:01.256Z,10.16
2022-08-07T02:38:00.374Z,10.17
2022-08-07T02:39:00.617Z,10.17
2022-08-07T02:40:11.747Z,10.22
2022-08-07T02:41:04.105Z,10.32
2022-08-07T02:42:00.933Z,10.38
2022-08-07T02:43:01.065Z,10.38
2022-08-07T02:44:02.163Z,10.43
2022-08-07T02:45:01.292Z,10.44
2022-08-07T02:46:02.853Z,10.47
2022-08-07T02:47:01.535Z,10.44
2022-08-07T02:48:01.950Z,10.43
2022-08-07T02:49:03.340Z,10.42
2022-08-07T02:50:01.853Z,10.39
2022-08-07T02:51:02.033Z,10.36
2022-08-07T02:52:02.175Z,10.32
2022-08-07T02:53:06.283Z,10.31
2022-08-07T02:54:02.449Z,10.34
2022-08-07T02:55:02.588Z,10.36
2022-08-07T02:56:11.245Z,10.35
2022-08-07T02:57:03.876Z,10.32
2022-08-07T02:58:03.011Z,10.29
2022-08-07T02:59:03.233Z,10.26
2022-08-07T03:00:10.348Z,10.26
2022-08-07T03:01:04.454Z,10.25
2022-08-07T03:02:03.575Z,10.26
2022-08-07T03:03:05.987Z,10.26
2022-08-07T03:04:07.540Z,10.31
2022-08-07T03:05:06.772Z,10.31
2022-08-07T03:06:04.067Z,10.25
2022-08-07T03:07:10.335Z,10.24
2022-08-07T03:08:09.323Z,10.20
2022-08-07T03:09:05.404Z,10.18
2022-08-07T03:10:04.517Z,10.14
2022-08-07T03:11:04.630Z,10.13
2022-08-07T03:12:04.767Z,10.11
2022-08-07T03:13:04.943Z,10.09
2022-08-07T03:14:04.990Z,10.07
2022-08-07T03:15:07.428Z,10.04
2022-08-07T03:16:05.240Z,10.06
2022-08-07T03:17:05.393Z,10.07
2022-08-07T03:18:05.518Z,10.07
2022-08-07T03:19:05.684Z,10.06
2022-08-07T03:20:05.832Z,10.09
2022-08-07T03:21:08.524Z,10.07
2022-08-07T03:22:07.119Z,10.09
2022-08-07T03:23:06.272Z,10.10
2022-08-07T03:24:17.645Z,10.10
2022-08-07T03:25:07.470Z,10.10
2022-08-07T03:26:06.629Z,10.09
2022-08-07T03:27:09.101Z,10.04
2022-08-07T03:28:09.643Z,10.01
2022-08-07T03:29:10.421Z,9.99
2022-08-07T03:30:07.237Z,9.99
2022-08-07T03:31:07.329Z,9.98
2022-08-07T03:32:07.447Z,9.98
2022-08-07T03:33:10.084Z,9.98
2022-08-07T03:34:07.721Z,9.99
2022-08-07T03:35:17.988Z,9.99
2022-08-07T03:36:08.941Z,10.02
2022-08-07T03:37:12.337Z,10.02
2022-08-07T03:38:08.170Z,9.99
2022-08-07T03:39:09.386Z,9.99
2022-08-07T03:40:16.458Z,9.96
2022-08-07T03:41:10.358Z,9.93
2022-08-07T03:42:08.784Z,9.91
2022-08-07T03:43:13.757Z,9.88
2022-08-07T03:44:10.069Z,9.83
2022-08-07T03:45:09.197Z,9.78
2022-08-07T03:46:10.507Z,9.75
2022-08-07T03:47:13.521Z,9.75
2022-08-07T03:48:09.997Z,9.74
2022-08-07T03:49:09.766Z,9.73
2022-08-07T03:50:10.588Z,9.73
2022-08-07T03:51:10.259Z,9.70
2022-08-07T03:52:22.441Z,9.68
2022-08-07T03:53:11.375Z,9.70
2022-08-07T03:54:35.191Z,9.70
2022-08-07T03:55:11.659Z,9.68
2022-08-07T03:56:10.829Z,9.67
2022-08-07T03:57:10.977Z,9.65
2022-08-07T03:59:05.735Z,9.73
2022-08-07T03:59:14.776Z,9.73
2022-08-07T04:00:11.411Z,9.73
2022-08-07T04:01:11.810Z,9.71
2022-08-07T04:02:11.725Z,9.71
2022-08-07T04:03:11.894Z,9.71
2022-08-07T04:04:17.197Z,9.68
2022-08-07T04:05:13.086Z,9.68
2022-08-07T04:06:36.336Z,9.68
2022-08-07T04:07:16.802Z,9.67
2022-08-07T04:08:12.506Z,9.67
2022-08-07T04:09:15.650Z,9.70
2022-08-07T04:10:15.426Z,9.73
2022-08-07T04:12:23.897Z,9.73
2022-08-07T04:12:26.249Z,9.73
2022-08-07T04:13:15.331Z,9.73
2022-08-07T04:14:36.993Z,9.73
2022-08-07T04:15:14.484Z,9.73
2022-08-07T04:16:13.668Z,9.70
2022-08-07T04:17:20.287Z,9.68
2022-08-07T04:18:59.890Z,9.70
2022-08-07T04:19:15.661Z,9.71
2022-08-07T04:20:14.177Z,9.73
2022-08-07T04:21:14.297Z,9.75
2022-08-07T04:22:17.307Z,9.80
2022-08-07T04:23:19.187Z,9.78
2022-08-07T04:24:33.734Z,9.77
2022-08-07T04:25:15.909Z,9.74
2022-08-07T04:26:16.842Z,9.77
2022-08-07T04:27:25.419Z,9.80
2022-08-07T04:28:16.263Z,9.78
2022-08-07T04:29:16.371Z,9.78
2022-08-07T04:30:21.035Z,9.80
2022-08-07T04:31:20.024Z,9.81
2022-08-07T04:32:15.863Z,9.81
2022-08-07T04:33:16.027Z,9.83
2022-08-07T04:34:16.832Z,9.81
2022-08-07T04:35:16.297Z,9.81
2022-08-07T04:36:16.425Z,9.85
2022-08-07T04:37:20.495Z,9.81
2022-08-07T04:38:16.766Z,9.86
2022-08-07T04:39:17.646Z,9.86
2022-08-07T04:40:17.052Z,9.89
2022-08-07T04:41:19.115Z,9.89
2022-08-07T04:42:17.294Z,9.91
2022-08-07T04:43:17.395Z,9.92
2022-08-07T04:44:18.889Z,9.92
2022-08-07T04:45:21.059Z,9.93
2022-08-07T04:46:25.983Z,9.93
2022-08-07T04:47:23.622Z,9.95
2022-08-07T04:48:19.105Z,9.95
2022-08-07T04:49:25.579Z,9.92
2022-08-07T04:50:19.342Z,9.95
2022-08-07T04:51:18.496Z,9.95
2022-08-07T04:52:18.678Z,9.95
2022-08-07T04:53:39.895Z,10.01
2022-08-07T04:54:22.909Z,10.01
2022-08-07T04:58:11.330Z,10.11
2022-08-07T04:58:14.295Z,10.10
2022-08-07T04:58:23.555Z,10.06
2022-08-07T04:58:34.830Z,10.13
2022-08-07T05:00:11.476Z,10.11
2022-08-07T05:00:30.077Z,10.14
2022-08-07T05:01:20.892Z,10.16
2022-08-07T05:02:20.975Z,10.20
2022-08-07T05:04:00.334Z,10.18
2022-08-07T05:04:21.236Z,10.22
2022-08-07T05:05:52.631Z,10.26
2022-08-07T05:06:21.483Z,10.31
2022-08-07T05:07:21.142Z,10.36
2022-08-07T05:08:59.307Z,10.39
2022-08-07T05:09:43.034Z,10.42
2022-08-07T05:10:21.981Z,10.47
2022-08-07T05:11:24.481Z,10.51
2022-08-07T05:12:27.402Z,10.55
2022-08-07T05:14:52.379Z,10.68
2022-08-07T05:14:56.260Z,10.62
2022-08-07T05:15:23.825Z,10.69
2022-08-07T05:16:21.731Z,10.70
2022-08-07T05:17:52.698Z,10.70
2022-08-07T05:18:22.990Z,10.75
2022-08-07T05:19:32.581Z,10.80
2022-08-07T05:20:23.207Z,10.83
2022-08-07T05:21:59.532Z,10.86
2022-08-07T05:22:27.633Z,10.88
2022-08-07T05:23:23.160Z,10.93
2022-08-07T05:24:24.539Z,10.94
2022-08-07T05:25:35.633Z,11.01
2022-08-07T05:26:24.648Z,11.01
2022-08-07T05:28:15.980Z,11.06
2022-08-07T05:28:26.803Z,11.11
2022-08-07T05:29:23.361Z,11.19
2022-08-07T05:30:30.096Z,11.23
2022-08-07T05:31:24.532Z,11.27
2022-08-07T05:32:24.659Z,11.31
2022-08-07T05:33:23.798Z,11.35
2022-08-07T05:34:26.186Z,11.41
2022-08-07T05:35:24.080Z,11.45
2022-08-07T05:36:32.114Z,11.53
2022-08-07T05:37:25.689Z,11.59
2022-08-07T05:39:00.729Z,11.66
2022-08-07T05:40:13.365Z,11.72
2022-08-07T05:40:25.724Z,11.78
2022-08-07T05:41:24.898Z,11.85
2022-08-07T05:42:34.384Z,11.88
2022-08-07T05:43:50.226Z,11.94
2022-08-07T05:44:29.148Z,11.98
2022-08-07T05:45:46.338Z,12.03
2022-08-07T05:46:26.559Z,12.08
2022-08-07T05:47:38.094Z,12.16
2022-08-07T05:48:26.871Z,12.25
2022-08-07T05:49:25.765Z,12.34
2022-08-07T05:50:25.930Z,12.40
2022-08-07T05:51:25.998Z,12.48
2022-08-07T05:52:32.565Z,12.58
2022-08-07T05:54:13.096Z,12.62
2022-08-07T05:54:44.271Z,12.69
2022-08-07T05:56:02.403Z,12.76
2022-08-07T05:56:30.140Z,12.81
2022-08-07T05:57:30.491Z,12.85
2022-08-07T05:58:36.126Z,12.91
2022-08-07T05:59:28.093Z,12.95
2022-08-07T06:00:27.195Z,12.98
2022-08-07T06:01:27.304Z,13.01
2022-08-07T06:02:29.224Z,13.03
2022-08-07T06:03:27.472Z,13.06
2022-08-07T06:04:30.146Z,13.09
2022-08-07T06:05:28.537Z,13.14
2022-08-07T06:06:29.546Z,13.22
2022-08-07T06:08:14.392Z,13.31
2022-08-07T06:08:30.874Z,13.43
2022-08-07T06:10:04.348Z,13.55
2022-08-07T06:10:29.329Z,13.66
2022-08-07T06:11:28.674Z,13.81
2022-08-07T06:12:32.959Z,13.93
2022-08-07T06:14:10.856Z,13.98
2022-08-07T06:14:30.275Z,14.02
2022-08-07T06:15:39.210Z,14.05
2022-08-07T06:16:30.100Z,14.20
2022-08-07T06:17:32.140Z,14.26
2022-08-07T06:18:30.297Z,14.29
2022-08-07T06:19:52.282Z,14.27
2022-08-07T06:20:49.873Z,14.31
2022-08-07T06:22:14.460Z,14.35
2022-08-07T06:22:33.333Z,14.42
2022-08-07T06:24:37.509Z,14.48
2022-08-07T06:24:45.569Z,14.54
2022-08-07T06:25:34.772Z,14.63
2022-08-07T06:26:31.327Z,14.75
2022-08-07T06:27:59.718Z,14.91
2022-08-07T06:28:31.605Z,15.03
2022-08-07T06:29:30.726Z,15.11
2022-08-07T06:30:35.742Z,15.16
2022-08-07T06:31:38.845Z,15.19
2022-08-07T06:32:32.669Z,15.25
2022-08-07T06:33:33.046Z,15.34
2022-08-07T06:34:31.365Z,15.40
2022-08-07T06:35:45.400Z,15.44
2022-08-07T06:36:35.179Z,15.52
2022-08-07T06:37:44.069Z,15.56
2022-08-07T06:38:32.825Z,15.64
2022-08-07T06:40:16.202Z,15.76
2022-08-07T06:40:35.067Z,15.81
2022-08-07T06:42:01.923Z,15.89
2022-08-07T06:42:35.234Z,15.96
2022-08-07T06:43:39.569Z,16.03
2022-08-07T06:44:34.011Z,16.11
2022-08-07T06:45:32.698Z,16.25
2022-08-07T06:46:35.251Z,16.30
2022-08-07T06:47:48.294Z,16.41
2022-08-07T06:48:34.036Z,16.47
2022-08-07T06:49:33.136Z,16.51
2022-08-07T06:50:33.280Z,16.55
2022-08-07T06:51:33.886Z,16.65
2022-08-07T06:52:35.700Z,16.77
2022-08-07T06:54:12.198Z,16.81
2022-08-07T06:55:33.270Z,16.91
2022-08-07T06:55:59.906Z,16.98
2022-08-07T06:56:35.027Z,17.05
2022-08-07T06:57:39.816Z,17.07
2022-08-07T06:58:35.283Z,17.10
2022-08-07T07:00:15.034Z,17.14
2022-08-07T07:00:35.527Z,17.17
2022-08-07T07:01:43.813Z,17.24
2022-08-07T07:02:53.792Z,17.33
2022-08-07T07:03:48.942Z,17.46
2022-08-07T07:04:36.087Z,17.60
2022-08-07T07:06:03.307Z,17.68
2022-08-07T07:06:39.416Z,17.76
2022-08-07T07:07:59.922Z,17.83
2022-08-07T07:08:39.958Z,17.89
2022-08-07T07:09:36.724Z,17.94
2022-08-07T07:10:35.838Z,17.94
2022-08-07T07:12:10.666Z,17.95
2022-08-07T07:12:37.058Z,18.04
2022-08-07T07:13:55.582Z,18.16
2022-08-07T07:14:37.307Z,18.29
2022-08-07T07:15:38.338Z,18.39
2022-08-07T07:16:39.230Z,18.54
2022-08-07T07:17:38.811Z,18.69
2022-08-07T07:18:47.704Z,18.84
2022-08-07T07:19:55.874Z,18.96
2022-08-07T07:20:38.034Z,19.05
2022-08-07T07:22:04.174Z,19.09
2022-08-07T07:24:05.991Z,19.15
2022-08-07T07:24:08.908Z,19.25
2022-08-07T07:24:38.546Z,19.32
2022-08-07T07:26:35.523Z,19.40
2022-08-07T07:26:38.855Z,19.47
2022-08-07T07:27:58.583Z,19.53
2022-08-07T07:28:48.280Z,19.60
2022-08-07T07:30:09.395Z,19.58
2022-08-07T07:30:39.694Z,19.68
2022-08-07T07:31:40.172Z,19.76
2022-08-07T07:32:39.475Z,19.85
2022-08-07T07:33:38.635Z,19.95
2022-08-07T07:34:39.656Z,20.04
2022-08-07T07:35:43.960Z,20.15
2022-08-07T07:36:40.452Z,20.27
2022-08-07T07:37:58.942Z,20.37
2022-08-07T07:38:40.276Z,20.46
2022-08-07T07:39:51.980Z,20.61
2022-08-07T07:40:40.541Z,20.63
2022-08-07T07:42:02.327Z,20.60
2022-08-07T07:42:40.757Z,20.64
2022-08-07T07:44:14.344Z,20.76
2022-08-07T07:44:41.017Z,20.82
2022-08-07T07:46:38.023Z,20.85
2022-08-07T07:46:55.200Z,20.90
2022-08-07T07:47:52.052Z,20.93
2022-08-07T07:48:41.516Z,21.00
2022-08-07T07:50:35.392Z,21.12
2022-08-07T07:50:41.777Z,21.22
2022-08-07T07:51:57.389Z,21.27
2022-08-07T07:52:42.039Z,21.27
2022-08-07T07:53:51.934Z,21.34
2022-08-07T07:54:50.854Z,21.46
2022-08-07T07:55:45.715Z,21.55
2022-08-07T07:56:42.658Z,21.52
2022-08-07T07:57:50.514Z,21.53
2022-08-07T07:58:42.797Z,21.53
2022-08-07T07:59:52.223Z,21.64
2022-08-07T08:00:43.059Z,21.66
2022-08-07T08:02:03.812Z,21.73
2022-08-07T08:03:04.720Z,21.82
2022-08-07T08:04:05.770Z,21.86
2022-08-07T08:04:43.633Z,21.98
2022-08-07T08:05:54.338Z,21.96
2022-08-07T08:06:50.913Z,22.09
2022-08-07T08:07:59.782Z,22.24
2022-08-07T08:08:44.066Z,22.38
2022-08-07T08:09:52.358Z,22.48
2022-08-07T08:10:44.299Z,22.59
2022-08-07T08:12:00.060Z,22.66
2022-08-07T08:12:52.233Z,22.79
2022-08-07T08:13:53.989Z,22.86
2022-08-07T08:14:44.787Z,22.81
2022-08-07T08:15:57.712Z,22.94
2022-08-07T08:18:36.531Z,23.07
2022-08-07T08:18:36.891Z,23.25
2022-08-07T08:18:45.315Z,23.23
2022-08-07T08:20:18.169Z,23.11
2022-08-07T08:20:45.586Z,23.12
2022-08-07T08:21:56.014Z,23.22
2022-08-07T08:22:55.845Z,23.12
2022-08-07T08:23:46.209Z,23.18
2022-08-07T08:24:46.650Z,23.11
2022-08-07T08:25:49.564Z,23.19
2022-08-07T08:26:45.319Z,23.35
2022-08-07T08:27:56.276Z,23.44
2022-08-07T08:28:46.581Z,23.59
2022-08-07T08:29:54.518Z,23.75
2022-08-07T08:30:51.392Z,23.79
2022-08-07T08:32:18.251Z,23.79
2022-08-07T08:32:49.090Z,23.75
2022-08-07T08:33:49.431Z,23.89
2022-08-07T08:34:47.379Z,23.75
2022-08-07T08:35:49.703Z,23.72
2022-08-07T08:36:46.621Z,23.52
2022-08-07T08:38:01.445Z,23.54
2022-08-07T08:38:47.876Z,23.71
2022-08-07T08:39:54.846Z,23.93
2022-08-07T08:40:48.091Z,24.21
2022-08-07T08:41:58.234Z,24.46
2022-08-07T08:42:48.343Z,24.70
2022-08-07T08:43:50.460Z,24.90
2022-08-07T08:44:48.600Z,25.04
2022-08-07T08:46:00.796Z,25.04
2022-08-07T08:46:48.843Z,24.98
2022-08-07T08:47:54.767Z,24.87
2022-08-07T08:48:51.065Z,24.87
2022-08-07T08:50:04.908Z,24.93
2022-08-07T08:50:49.350Z,25.07
2022-08-07T08:51:49.494Z,25.19
2022-08-07T08:52:53.806Z,25.38
2022-08-07T08:53:48.751Z,25.49
2022-08-07T08:54:48.878Z,25.56
2022-08-07T08:55:54.630Z,25.66
2022-08-07T08:56:50.109Z,25.72
2022-08-07T08:57:49.242Z,25.60
2022-08-07T08:58:50.468Z,25.67
2022-08-07T08:59:50.484Z,25.66
2022-08-07T09:00:52.645Z,25.60
2022-08-07T09:01:49.839Z,25.63
2022-08-07T09:02:52.489Z,25.74
2022-08-07T09:03:53.047Z,25.90
2022-08-07T09:04:51.045Z,26.01
2022-08-07T09:05:52.941Z,26.19
2022-08-07T09:06:50.337Z,26.09
2022-08-07T09:07:57.436Z,25.97
2022-08-07T09:08:51.540Z,26.12
2022-08-07T09:09:57.172Z,26.31
2022-08-07T09:10:51.812Z,26.49
2022-08-07T09:11:55.441Z,26.50
2022-08-07T09:12:52.997Z,26.61
2022-08-07T09:13:51.203Z,26.47
2022-08-07T09:14:51.360Z,26.50
2022-08-07T09:16:23.066Z,26.61
2022-08-07T09:16:52.592Z,26.81
2022-08-07T09:18:00.391Z,27.08
2022-08-07T09:18:53.293Z,26.97
2022-08-07T09:19:55.287Z,27.20
2022-08-07T09:21:57.905Z,27.42
2022-08-07T09:24:33.305Z,27.27
2022-08-07T09:24:52.443Z,27.15
2022-08-07T09:25:07.083Z,27.48
2022-08-07T09:25:58.827Z,27.62
2022-08-07T09:26:57.970Z,27.49
2022-08-07T09:28:00.691Z,27.33
2022-08-07T09:30:00.560Z,27.33
2022-08-07T09:30:04.786Z,27.50
2022-08-07T09:30:59.426Z,27.62
2022-08-07T09:31:58.605Z,27.68
2022-08-07T09:32:58.686Z,27.83
2022-08-07T09:33:59.807Z,27.96
2022-08-07T09:34:58.921Z,28.11
2022-08-07T09:36:04.889Z,28.32
2022-08-07T09:37:00.155Z,28.43
2022-08-07T09:38:00.477Z,28.52
2022-08-07T09:38:59.484Z,28.67
2022-08-07T09:40:00.643Z,29.02
2022-08-07T09:40:59.697Z,29.10
2022-08-07T09:42:05.848Z,29.11
2022-08-07T09:43:00.946Z,29.27
2022-08-07T09:44:06.092Z,29.35
2022-08-07T09:47:24.370Z,29.60
2022-08-07T09:47:49.909Z,29.42
2022-08-07T09:47:52.543Z,29.58
2022-08-07T09:48:05.207Z,29.27
2022-08-07T09:50:01.223Z,29.10
2022-08-07T09:50:18.977Z,29.39
2022-08-07T09:51:01.968Z,29.52
2022-08-07T09:52:15.852Z,29.76
2022-08-07T09:53:02.207Z,29.82
2022-08-07T09:54:02.890Z,28.79
2022-08-07T09:55:01.449Z,28.76
2022-08-07T09:56:03.443Z,28.94
2022-08-07T09:57:01.707Z,28.94
2022-08-07T09:58:01.829Z,28.67
2022-08-07T09:59:01.979Z,28.28
2022-08-07T10:00:03.377Z,28.33
2022-08-07T10:01:02.207Z,28.51
2022-08-07T10:02:03.399Z,28.62
2022-08-07T10:03:08.370Z,28.60
2022-08-07T10:04:14.202Z,28.62
2022-08-07T10:05:12.617Z,28.77
2022-08-07T10:06:08.983Z,28.87
2022-08-07T10:07:04.017Z,29.08
2022-08-07T10:08:03.259Z,28.65
2022-08-07T10:09:03.279Z,28.62
2022-08-07T10:10:03.476Z,28.43
2022-08-07T10:12:00.627Z,28.33
2022-08-07T10:12:15.198Z,28.46
2022-08-07T10:13:04.790Z,28.32
2022-08-07T10:14:04.878Z,27.81
2022-08-07T10:15:04.019Z,27.86
2022-08-07T10:16:05.105Z,27.91
2022-08-07T10:17:04.310Z,28.39
2022-08-07T10:18:05.430Z,28.08
2022-08-07T10:19:04.529Z,28.60
2022-08-07T10:20:05.650Z,29.33
2022-08-07T10:21:19.950Z,30.03
2022-08-07T10:22:15.833Z,30.70
2022-08-07T10:23:07.625Z,30.78
2022-08-07T10:24:08.474Z,31.05
2022-08-07T10:25:05.284Z,31.00
2022-08-07T10:26:05.432Z,30.70
2022-08-07T10:27:06.690Z,30.83
2022-08-07T10:28:05.667Z,31.16
2022-08-07T10:29:05.821Z,31.50
2022-08-07T10:30:06.412Z,31.79
2022-08-07T10:31:11.316Z,31.75
2022-08-07T10:32:36.396Z,31.84
2022-08-07T10:33:08.389Z,31.72
2022-08-07T10:34:17.925Z,31.67
2022-08-07T10:35:09.166Z,31.62
2022-08-07T10:36:11.331Z,31.97
2022-08-07T10:37:12.399Z,32.31
2022-08-07T10:38:21.676Z,32.44
2022-08-07T10:39:08.463Z,32.24
2022-08-07T10:40:08.832Z,32.44
2022-08-07T10:41:07.294Z,32.83
2022-08-07T10:42:09.288Z,33.06
2022-08-07T10:43:08.564Z,31.76
2022-08-07T10:44:07.963Z,31.45
2022-08-07T10:45:07.834Z,31.23
2022-08-07T10:46:07.946Z,30.40
2022-08-07T10:47:11.788Z,30.13
2022-08-07T10:48:08.672Z,30.22
2022-08-07T10:49:08.298Z,30.28
2022-08-07T10:50:08.446Z,30.68
2022-08-07T10:51:16.439Z,30.00
2022-08-07T10:52:13.411Z,29.73
2022-08-07T10:53:09.134Z,30.16
2022-08-07T10:54:08.953Z,30.91
2022-08-07T10:55:27.068Z,31.25
2022-08-07T10:56:11.113Z,31.99
2022-08-07T10:57:10.329Z,31.87
2022-08-07T10:58:10.225Z,31.32
2022-08-07T10:59:09.587Z,30.91
2022-08-07T11:00:09.698Z,30.88
2022-08-07T11:01:11.657Z,31.52
2022-08-07T11:02:12.365Z,32.06
2022-08-07T11:03:12.756Z,32.44
2022-08-07T11:04:16.542Z,32.59
2022-08-07T11:05:11.285Z,32.71
2022-08-07T11:06:10.370Z,32.61
2022-08-07T11:07:14.878Z,33.05
2022-08-07T11:08:11.888Z,33.52
2022-08-07T11:09:11.390Z,33.57
2022-08-07T11:10:11.315Z,33.28
2022-08-07T11:11:10.975Z,33.22
2022-08-07T11:12:11.115Z,32.69
2022-08-07T11:13:16.923Z,32.24
2022-08-07T11:14:57.057Z,32.68
2022-08-07T11:15:17.210Z,33.21
2022-08-07T11:16:12.594Z,32.99
2022-08-07T11:17:11.715Z,33.53
2022-08-07T11:18:12.538Z,33.77
2022-08-07T11:19:11.956Z,33.56
2022-08-07T11:20:12.065Z,34.01
2022-08-07T11:21:12.185Z,34.24
2022-08-07T11:22:27.211Z,34.30
2022-08-07T11:23:26.363Z,34.46
2022-08-07T11:24:13.567Z,34.52
2022-08-07T11:25:12.669Z,34.06
2022-08-07T11:26:13.054Z,34.05
2022-08-07T11:27:13.532Z,33.45
2022-08-07T11:28:15.289Z,32.96
2022-08-07T11:29:42.093Z,33.21
2022-08-07T11:30:18.193Z,33.56
2022-08-07T11:31:13.476Z,33.82
2022-08-07T11:32:13.508Z,33.79
2022-08-07T11:33:14.035Z,32.05
2022-08-07T11:34:16.332Z,30.98
2022-08-07T11:35:16.677Z,30.34
2022-08-07T11:36:15.077Z,29.52
2022-08-07T11:37:15.166Z,29.14
2022-08-07T11:38:17.318Z,28.72
2022-08-07T11:39:14.762Z,28.52
2022-08-07T11:40:19.156Z,28.30
2022-08-07T11:41:18.181Z,28.73
2022-08-07T11:42:18.803Z,28.98
2022-08-07T11:43:15.395Z,29.12
2022-08-07T11:44:18.641Z,30.53
2022-08-07T11:45:15.078Z,30.26
2022-08-07T11:46:16.921Z,29.55
2022-08-07T11:47:15.309Z,28.94
2022-08-07T11:48:29.136Z,28.28
2022-08-07T11:49:51.171Z,27.62
2022-08-07T11:50:32.384Z,27.05
2022-08-07T11:51:41.817Z,26.72
2022-08-07T11:52:16.930Z,26.50
2022-08-07T11:53:16.047Z,26.44
2022-08-07T11:54:16.139Z,26.38
2022-08-07T11:55:19.122Z,26.31
2022-08-07T11:56:26.786Z,27.06
2022-08-07T11:57:17.542Z,28.88
2022-08-07T11:58:16.717Z,30.22
2022-08-07T12:00:08.816Z,30.23
2022-08-07T12:00:19.168Z,30.81
2022-08-07T12:01:20.154Z,31.74
2022-08-07T12:02:21.001Z,32.47
2022-08-07T12:03:41.640Z,33.06
2022-08-07T12:04:18.420Z,32.66
2022-08-07T12:05:28.492Z,32.28
2022-08-07T12:06:36.879Z,32.81
2022-08-07T12:07:27.048Z,33.41
2022-08-07T12:08:25.936Z,33.74
2022-08-07T12:09:23.804Z,34.05
2022-08-07T12:10:18.195Z,33.57
2022-08-07T12:11:20.523Z,33.57
2022-08-07T12:12:18.442Z,33.47
2022-08-07T12:13:35.302Z,34.11
2022-08-07T12:14:19.712Z,34.73
2022-08-07T12:15:45.983Z,35.27
2022-08-07T12:16:29.937Z,35.47
2022-08-07T12:17:20.479Z,35.43
2022-08-07T12:18:22.067Z,35.36
2022-08-07T12:19:21.671Z,35.40
2022-08-07T12:20:30.087Z,35.55
2022-08-07T12:21:21.029Z,35.56
2022-08-07T12:22:38.940Z,35.36
2022-08-07T12:23:21.381Z,35.66
2022-08-07T12:24:37.533Z,35.56
2022-08-07T12:26:02.915Z,35.40
2022-08-07T12:26:30.104Z,35.62
2022-08-07T12:27:27.997Z,35.40
2022-08-07T12:28:30.801Z,35.47
2022-08-07T12:29:37.664Z,35.27
2022-08-07T12:30:23.370Z,35.02
2022-08-07T12:31:22.415Z,35.77
2022-08-07T12:32:21.018Z,35.83
2022-08-07T12:33:23.241Z,35.46
2022-08-07T12:34:22.775Z,35.61
2022-08-07T12:35:21.413Z,35.83
2022-08-07T12:36:30.220Z,36.11
2022-08-07T12:37:23.470Z,36.06
2022-08-07T12:38:29.412Z,36.48
2022-08-07T12:39:43.996Z,36.74
2022-08-07T12:40:47.941Z,36.87
2022-08-07T12:41:23.218Z,37.24
2022-08-07T12:42:28.057Z,37.47
2022-08-07T12:44:02.255Z,37.73
2022-08-07T12:44:23.594Z,37.73
2022-08-07T12:45:22.803Z,37.80
2022-08-07T12:46:31.960Z,37.13
2022-08-07T12:47:26.949Z,36.82
2022-08-07T12:48:28.182Z,37.34
2022-08-07T12:49:39.927Z,37.81
2022-08-07T12:50:38.371Z,36.99
2022-08-07T12:51:24.482Z,36.94
2022-08-07T12:52:24.615Z,36.37
2022-08-07T12:53:23.764Z,34.50
2022-08-07T12:54:38.259Z,33.09
2022-08-07T12:55:40.585Z,32.13
2022-08-07T12:56:26.614Z,32.05
2022-08-07T12:57:24.266Z,31.37
2022-08-07T12:58:28.242Z,30.81